Latest Weather Observations for Kununurra Airport

IDD60801

Issued at 7:35 pm CST Saturday 22 November 2014 (issued every 30 minutes, with the page automatically refreshed every 10 minutes)

About weather observations | Map of weather stations | Latest weather observations for NT | Other Formats
Station Details ID: 002056 Name: KUNUNURRA AERO Lat: -15.78 Lon: 128.71 Height: 44.0 m
Data from the previous 72 hours. | See also: Recent months at Kununurra Airport
Date/Time
CST
Temp
°C
App
Temp
°C
Dew
Point
Rel
Hum
%
Delta-T
°C
Wind Press
QNH
hPa
Press
MSL
hPa
Rain
since 9 am
mm
Dir
 
Spd
km/h
Gust
km/h
Spd
kts
Gust
kts
22/07:30pm 30.5 25.8 18.6 49 7.7 E 41 54 22 29 1010.0 1009.7 0.0
22/07:04pm 32.5 27.3 17.5 40 9.6 ENE 41 50 22 27 1009.4 - 0.0
22/07:00pm 33.2 29.9 19.2 43 9.2 NE 35 48 19 26 1008.9 - 0.0
22/06:40pm 34.4 32.6 20.4 44 9.4 N 30 52 16 28 1007.5 - 0.0
22/06:30pm 35.4 34.3 21.1 43 9.7 N 28 37 15 20 1007.1 - 0.0
22/06:00pm 36.1 35.4 20.2 39 10.7 N 24 30 13 16 1006.2 - 0.0
22/05:30pm 36.3 34.2 19.7 37 11.1 N 30 37 16 20 1005.9 - 0.0
22/05:00pm 37.0 34.6 20.3 37 11.3 N 33 44 18 24 1005.5 - 0.0
22/04:45pm 39.9 36.4 17.5 27 14.7 N 32 41 17 22 1005.3 - 0.0
22/04:30pm 41.4 40.8 13.6 19 17.4 NNE 9 17 5 9 1005.3 1004.9 0.0
22/04:00pm 41.0 40.3 14.2 20 16.9 S 11 17 6 9 1005.4 - 0.0
22/03:30pm 40.9 40.7 14.8 21 16.5 SW 9 13 5 7 1006.0 - 0.0
22/03:00pm 40.7 39.9 15.1 22 16.3 SSW 13 17 7 9 1006.7 - 0.0
22/02:30pm 40.9 41.6 16.2 23 16.0 ENE 7 13 4 7 1007.4 - 0.0
22/02:00pm 39.6 40.2 15.7 24 15.3 ENE 7 15 4 8 1008.1 - 0.0
22/01:30pm 39.0 39.6 15.9 25 14.8 WNW 7 15 4 8 1008.5 1008.2 0.0
22/01:00pm 38.9 38.3 15.7 25 14.8 SSW 13 19 7 10 1009.1 - 0.0
22/12:30pm 38.9 37.9 15.7 25 14.8 SSE 15 20 8 11 1009.6 - 0.0
22/12:00pm 38.0 37.5 15.9 27 14.1 ESE 13 24 7 13 1010.1 - 0.0
22/11:30am 38.0 38.4 16.3 27 13.9 E 9 19 5 10 1010.6 - 0.0
22/11:00am 36.5 37.0 17.4 32 12.4 E 11 15 6 8 1010.9 - 0.0
22/10:30am 36.5 37.7 19.0 35 11.6 ESE 11 19 6 10 1011.2 1010.9 0.0
22/10:00am 34.2 37.0 20.8 45 9.0 S 7 11 4 6 1011.4 - 0.0
22/09:30am 34.0 36.7 20.6 45 9.0 S 7 13 4 7 1011.4 - 0.0
22/09:00am 32.8 36.4 22.3 54 7.2 NNE 7 11 4 6 1011.5 - 0.0
22/08:30am 31.2 35.4 23.5 63 5.3 N 7 9 4 5 1011.4 - 0.0
22/08:00am 30.2 34.4 23.5 67 4.6 NNE 7 9 4 5 1011.1 - 0.0
22/07:30am 28.8 33.3 23.7 74 3.5 N 6 7 3 4 1010.8 1010.5 0.0
22/07:00am 27.7 33.1 23.3 77 3.0 CALM 0 6 0 3 1010.3 - 0.0
22/06:30am 26.7 30.8 23.0 80 2.5 NE 6 7 3 4 1010.0 - 0.0
22/06:00am 26.5 30.6 23.3 82 2.2 S 7 9 4 5 1009.5 - 0.0
22/05:30am 27.4 32.5 23.3 78 2.8 S 2 6 1 3 1009.4 - 0.0
22/05:00am 27.7 33.3 23.5 78 2.9 CALM 0 0 0 0 1009.4 - 0.0
22/04:30am 28.4 32.7 23.6 75 3.3 S 7 11 4 6 1009.3 1009.0 0.0
22/04:00am 29.3 33.2 23.0 69 4.3 ENE 7 15 4 8 1009.6 - 0.0
22/03:30am 28.7 31.2 23.2 72 3.8 E 15 17 8 9 1009.4 - 0.0
22/03:00am 29.1 32.5 23.4 71 3.9 ESE 11 13 6 7 1009.3 - 0.0
22/02:30am 27.8 30.3 23.1 75 3.2 N 15 20 8 11 1008.4 - 0.0
22/02:00am 27.6 30.2 22.7 74 3.3 N 13 15 7 8 1008.5 - 0.0
22/01:30am 27.9 30.1 22.6 73 3.6 N 15 17 8 9 1009.0 1008.7 0.0
22/01:00am 28.2 30.2 22.3 70 4.0 N 15 19 8 10 1009.3 - 0.0
22/12:30am 28.5 31.1 22.0 68 4.4 N 11 13 6 7 1009.5 - 0.0
22/12:00am 29.1 31.6 21.7 64 5.0 NNE 11 13 6 7 1009.6 - 0.0
 
Date/Time
CST
Temp
°C
App
Temp
°C
Dew
Point
Rel
Hum
%
Delta-T
°C
Wind Press
QNH
hPa
Press
MSL
hPa
Rain
since 9 am
mm
Dir
 
Spd
km/h
Gust
km/h
Spd
kts
Gust
kts
21/11:30pm 29.0 31.6 21.9 65 4.8 N 11 13 6 7 1009.6 - 0.0
21/11:00pm 29.7 32.0 20.7 58 6.0 N 9 9 5 5 1010.0 - 0.0
21/10:30pm 30.8 32.7 19.7 51 7.3 NW 9 13 5 7 1009.7 1009.4 0.0
21/10:00pm 31.2 32.5 20.2 52 7.3 NNW 13 17 7 9 1009.5 - 0.0
21/09:30pm 30.5 32.4 21.4 58 6.1 N 13 15 7 8 1009.1 - 0.0
21/09:00pm 31.2 33.2 22.3 59 6.1 N 15 17 8 9 1008.4 - 0.0
21/08:30pm 32.3 34.6 22.0 54 7.0 NNW 13 17 7 9 1008.0 - 0.0
21/08:00pm 33.2 34.6 21.9 51 7.7 N 17 24 9 13 1007.4 - 0.0
21/07:30pm 34.3 34.9 21.3 46 8.8 N 20 26 11 14 1007.0 1006.6 0.0
21/07:00pm 35.8 35.2 20.5 41 10.3 N 24 32 13 17 1006.5 - 0.0
21/06:30pm 37.4 36.3 19.4 35 12.0 N 24 35 13 19 1006.1 - 0.0
21/06:00pm 39.3 37.3 15.5 24 15.2 N 20 26 11 14 1005.7 - 0.0
21/05:30pm 40.1 38.3 15.4 23 15.7 N 19 26 10 14 1005.3 - 0.0
21/05:00pm 40.7 38.0 13.4 20 17.0 N 20 24 11 13 1005.3 - 0.0
21/04:30pm 41.3 38.5 12.7 18 17.7 NNE 19 26 10 14 1005.5 1005.1 0.0
21/04:00pm 41.1 38.9 14.4 21 16.8 ENE 19 24 10 13 1005.8 - 0.0
21/03:30pm 40.4 39.6 15.1 22 16.1 N 13 20 7 11 1006.2 - 0.0
21/03:00pm 40.2 40.5 16.9 25 15.2 NNW 11 26 6 14 1006.7 - 0.0
21/02:30pm 40.1 41.0 17.6 27 14.8 N 9 19 5 10 1007.1 - 0.0
21/02:00pm 40.0 39.9 17.0 26 15.0 N 13 28 7 15 1007.5 - 0.0
21/01:30pm 39.2 37.9 17.3 27 14.3 N 20 26 11 14 1008.1 1007.8 0.0
21/01:00pm 39.0 39.9 18.5 30 13.6 NNE 11 20 6 11 1008.8 - 0.0
21/12:30pm 38.0 38.8 17.4 29 13.4 N 9 17 5 9 1009.3 - 0.0
21/12:00pm 37.2 38.8 18.2 32 12.5 NNE 7 17 4 9 1009.8 - 0.0
21/11:30am 36.9 38.8 18.9 34 11.9 ENE 7 13 4 7 1010.3 - 0.0
21/11:00am 36.2 38.4 19.5 37 11.1 S 7 15 4 8 1010.7 - 0.0
21/10:30am 34.9 37.1 20.5 43 9.7 NW 9 13 5 7 1010.9 1010.6 -
21/10:00am 34.4 37.1 21.3 46 8.9 N 9 15 5 8 1011.1 - -
21/09:30am 32.5 34.9 22.3 55 7.0 NNW 13 17 7 9 1011.0 - -
21/09:00am 31.9 35.1 23.1 59 6.1 N 11 17 6 9 1011.0 - -
21/08:30am 31.1 34.0 23.9 65 5.0 NNE 15 20 8 11 1010.9 - -
21/08:00am 29.5 33.6 24.5 74 3.5 NNE 11 17 6 9 1010.7 - -
21/07:30am 28.4 33.9 25.3 83 2.2 SW 6 7 3 4 1010.2 1009.9 -
21/07:00am 26.9 32.9 24.9 89 1.4 SW 2 7 1 4 1009.9 - -
21/06:00am 26.0 31.9 24.1 89 1.3 CALM 0 0 0 0 1009.2 - -
21/05:30am 26.5 32.5 24.3 88 1.5 CALM 0 0 0 0 1008.9 - -
21/05:00am 26.6 31.5 24.4 88 1.5 NNW 6 6 3 3 1008.7 - -
21/04:30am 27.0 30.9 24.3 85 1.9 N 11 13 6 7 1008.6 1008.3 -
21/04:00am 27.1 30.9 24.1 84 2.1 NNE 11 11 6 6 1008.3 - -
21/03:30am 26.9 31.5 24.2 85 1.9 NNE 7 9 4 5 1008.3 - -
21/03:00am 27.0 31.8 24.4 86 1.8 NNW 7 9 4 5 1008.5 - -
21/02:30am 27.4 31.8 24.5 84 2.0 N 9 13 5 7 1008.4 - -
21/02:00am 27.7 32.1 24.5 83 2.2 NNE 9 13 5 7 1008.7 - -
21/01:30am 28.1 33.5 24.5 81 2.5 NNE 4 7 2 4 1009.1 1008.8 -
21/01:00am 28.1 32.1 23.8 77 3.0 NE 9 9 5 5 1009.4 - -
21/12:30am 28.2 33.7 24.6 81 2.5 SSW 4 6 2 3 1009.6 - -
21/12:00am 28.9 35.3 24.9 79 2.8 CALM 0 0 0 0 1009.8 - -
 
Date/Time
CST
Temp
°C
App
Temp
°C
Dew
Point
Rel
Hum
%
Delta-T
°C
Wind Press
QNH
hPa
Press
MSL
hPa
Rain
since 9 am
mm
Dir
 
Spd
km/h
Gust
km/h
Spd
kts
Gust
kts
20/11:30pm 28.8 33.7 24.7 78 2.9 N 7 9 4 5 1009.9 - -
20/11:00pm 29.1 33.7 24.8 77 3.0 NNW 9 11 5 6 1010.0 - -
20/10:30pm 29.5 33.5 25.1 77 3.1 N 13 15 7 8 1009.6 1009.3 -
20/10:00pm 29.9 33.4 24.9 74 3.5 N 15 19 8 10 1009.2 - -
20/09:30pm 30.6 33.8 24.9 71 4.0 N 17 20 9 11 1008.8 - -
20/09:00pm 31.3 34.3 24.6 67 4.7 N 17 20 9 11 1008.4 - -
20/08:30pm 32.0 34.8 24.3 63 5.4 N 17 24 9 13 1008.0 - -
20/08:00pm 32.9 35.0 23.7 58 6.4 N 19 24 10 13 1007.5 - -
20/07:30pm 33.5 35.9 23.6 56 6.9 N 17 24 9 13 1007.1 1006.7 -
20/07:00pm 34.3 36.2 23.4 53 7.6 N 19 28 10 15 1006.7 - -
20/06:30pm 35.3 36.9 22.9 48 8.6 N 19 26 10 14 1006.4 - -
20/06:00pm 36.5 37.4 22.7 45 9.6 N 22 30 12 16 1005.9 - -
20/05:30pm 37.5 37.6 21.8 40 10.8 N 24 30 13 16 1005.3 - -
20/05:00pm 38.2 37.3 22.2 39 11.1 N 30 35 16 19 1005.3 - -
20/04:50pm 39.0 38.1 21.4 36 12.1 N 28 37 15 20 1005.3 - -
20/04:30pm 41.0 39.5 10.7 16 18.2 SSW 9 17 5 9 1005.3 1004.9 0.0
20/04:00pm 40.2 38.6 10.3 16 17.8 NNW 9 15 5 8 1005.9 - -
20/03:30pm 40.2 37.9 10.6 17 17.7 WSW 13 19 7 10 1006.3 - -
20/03:00pm 40.3 39.0 11.1 17 17.6 S 9 11 5 6 1006.8 - -
20/02:30pm 40.8 39.5 11.2 17 17.9 SE 9 17 5 9 1007.2 - -
20/02:00pm 39.7 38.1 12.9 20 16.5 SE 13 19 7 10 1007.7 - -
20/01:30pm 39.9 40.6 16.2 25 15.3 SE 7 17 4 9 1008.1 1007.8 -
20/01:00pm 37.9 39.2 17.5 30 13.3 S 7 13 4 7 1008.8 - -
20/12:00pm 35.3 36.9 19.1 38 10.7 SW 9 15 5 8 1009.8 - 0.0
20/11:30am 34.7 36.6 19.8 41 9.9 S 9 11 5 6 1010.3 - 0.0
20/11:00am 33.4 36.6 21.6 50 8.0 S 7 13 4 7 1010.8 - 0.0
20/10:30am 32.3 36.8 22.2 55 6.9 SE 2 9 1 5 1010.9 1010.6 -
20/10:00am 30.7 34.9 23.5 65 5.0 N 7 11 4 6 1010.9 - -
20/09:30am 29.6 32.6 24.0 72 3.9 WSW 15 20 8 11 1011.0 - -
20/09:00am 29.6 34.0 23.8 71 4.0 WSW 7 13 4 7 1011.6 - -
20/08:30am 28.7 33.5 24.4 77 3.0 SSW 7 9 4 5 1011.5 - -
20/08:00am 29.4 35.2 23.9 72 3.8 CALM 0 4 0 2 1011.7 - -
20/07:30am 28.9 31.8 23.2 71 3.9 E 13 15 7 8 1011.6 1011.3 -
20/07:00am 28.1 30.8 22.8 73 3.6 SE 13 19 7 10 1011.1 - -
20/06:30am 27.9 31.8 22.9 74 3.4 E 7 13 4 7 1010.6 - -
20/06:00am 28.4 32.2 22.8 71 3.8 E 7 11 4 6 1010.2 - -
20/05:30am 28.2 30.8 22.0 69 4.2 N 11 15 6 8 1009.7 - -
20/05:00am 28.3 31.5 21.6 67 4.5 NE 7 11 4 6 1009.9 - -
20/04:30am 28.8 30.6 21.2 63 5.1 NNW 13 19 7 10 1009.4 1009.1 -
20/04:00am 29.9 30.4 21.1 59 5.9 ENE 20 26 11 14 1009.4 - -
20/03:30am 28.5 30.3 20.3 61 5.4 NNE 11 13 6 7 1008.8 - -
20/03:00am 29.1 32.2 19.4 55 6.3 NNW 2 6 1 3 1008.7 - -
20/02:30am 29.1 30.7 19.1 54 6.5 W 9 9 5 5 1008.9 - -
20/02:00am 29.5 30.1 18.5 51 7.1 N 13 17 7 9 1009.0 - -
20/01:30am 29.3 30.6 17.5 49 7.5 N 7 11 4 6 1009.2 1008.9 -
20/01:00am 29.8 30.9 17.2 46 8.0 N 7 9 4 5 1009.4 - -
20/12:30am 30.2 30.8 16.7 44 8.5 NNE 9 13 5 7 1010.0 - -
20/12:00am 30.1 29.3 16.0 42 8.8 N 15 17 8 9 1010.1 - -
 
Date/Time
CST
Temp
°C
App
Temp
°C
Dew
Point
Rel
Hum
%
Delta-T
°C
Wind Press
QNH
hPa
Press
MSL
hPa
Rain
since 9 am
mm
Dir
 
Spd
km/h
Gust
km/h
Spd
kts
Gust
kts
19/11:30pm 30.3 29.8 15.8 41 9.0 N 13 17 7 9 1010.0 - -
19/11:00pm 31.3 31.3 15.3 38 9.9 NW 9 9 5 5 1009.8 - -
19/10:30pm 31.1 31.1 15.2 38 9.8 WNW 9 11 5 6 1009.8 1009.5 -
19/10:00pm 31.9 31.2 15.5 37 10.2 NNW 13 15 7 8 1009.9 - -
19/09:30pm 32.3 30.9 15.6 36 10.4 N 17 19 9 10 1010.1 - -

Other Formats:

Comma delimited format used in spreadsheet applications
http://www.bom.gov.au/fwo/IDD60801/IDD60801.94216.axf

JavaScript Object Notation format (JSON) in row-major order
http://www.bom.gov.au/fwo/IDD60801/IDD60801.94216.json